Terminal Aerodrome Forecast
Issued by NWS Wilmington, OH

Current Version | Previous Version | Graphics & Text | Print | Product List | Glossary On
Versions: 1 2 3 4 5 6 7 8 9 10 11 12 13 14 15 16 17 18 19 20
424
FTUS41 KILN 151134
TAFILN
TAF
KILN 151134Z 1512/1612 21004KT 3SM BR SCT200
      TEMPO 1512/1513 1/4SM FG VV001
     FM151300 27005KT P6SM BKN050
     FM160000 00000KT P6SM SCT200
     FM160400 00000KT 4SM BR SCT200
     FM160800 00000KT 1 1/2SM BR SCT250=

USA.gov is the U.S. government's official web portal to all federal, state and local government web resources and services.